Redfield, Arkansas
Current Conditions -  °F | °C
As of 5:53 PM on Friday 28 Nov 2014 (Local Time) from KLIT Reporting Station
Clear Clear  
Wind Chill: 50°   Ceiling: Unl
Heat Index: 50°   Visibility: 10mi
Dew Point: 35°   Wind: 6mph
Humidity: 57%   Direction: 170°S
Pressure: 30.1"   Gusts: NA
Location:  34.45°N, 92.18°W
Report Text: KLIT 282353Z 17005KT 10SM CLR 10/02 A3010 RMK AO2 SLP197 T01000017 10156 20100 56012
Loading
Personal Weather Stations






























Interactive Weather Map New forecast layout! Learn more

10-Day Weather Forecast

Advertisements
Track Severe Weather on mobile